sensor_id;sensor_type;location;lat;lon;timestamp;P1;durP1;ratioP1;P2;durP2;ratioP2
64903;SDS011;51401;48.882;12.598;2023-07-29T00:00:29;2.47;;;1.77;;
64903;SDS011;51401;48.882;12.598;2023-07-29T00:02:55;2.50;;;1.73;;
64903;SDS011;51401;48.882;12.598;2023-07-29T00:05:20;2.28;;;1.88;;
64903;SDS011;51401;48.882;12.598;2023-07-29T00:07:46;4.82;;;1.95;;
64903;SDS011;51401;48.882;12.598;2023-07-29T00:10:11;2.92;;;2.10;;
64903;SDS011;51401;48.882;12.598;2023-07-29T00:12:37;2.10;;;1.80;;
64903;SDS011;51401;48.882;12.598;2023-07-29T00:15:02;2.30;;;1.90;;
64903;SDS011;51401;48.882;12.598;2023-07-29T00:17:28;2.45;;;1.85;;
64903;SDS011;51401;48.882;12.598;2023-07-29T00:19:53;2.40;;;1.80;;
64903;SDS011;51401;48.882;12.598;2023-07-29T00:22:18;2.97;;;1.95;;
64903;SDS011;51401;48.882;12.598;2023-07-29T00:24:44;2.97;;;1.75;;
64903;SDS011;51401;48.882;12.598;2023-07-29T00:27:09;2.33;;;1.70;;
64903;SDS011;51401;48.882;12.598;2023-07-29T00:29:34;2.45;;;1.83;;
64903;SDS011;51401;48.882;12.598;2023-07-29T00:31:59;2.03;;;1.73;;
64903;SDS011;51401;48.882;12.598;2023-07-29T00:34:25;3.38;;;1.95;;
64903;SDS011;51401;48.882;12.598;2023-07-29T00:36:50;2.63;;;1.67;;
64903;SDS011;51401;48.882;12.598;2023-07-29T00:39:15;2.00;;;1.73;;
64903;SDS011;51401;48.882;12.598;2023-07-29T00:41:41;2.78;;;1.85;;
64903;SDS011;51401;48.882;12.598;2023-07-29T00:44:06;2.67;;;1.83;;
64903;SDS011;51401;48.882;12.598;2023-07-29T00:46:33;2.75;;;1.80;;
64903;SDS011;51401;48.882;12.598;2023-07-29T00:49:00;3.33;;;2.40;;
64903;SDS011;51401;48.882;12.598;2023-07-29T00:51:26;3.70;;;2.33;;
64903;SDS011;51401;48.882;12.598;2023-07-29T00:53:51;2.83;;;2.50;;
64903;SDS011;51401;48.882;12.598;2023-07-29T00:56:17;2.55;;;1.83;;
64903;SDS011;51401;48.882;12.598;2023-07-29T00:58:43;3.33;;;2.40;;
64903;SDS011;51401;48.882;12.598;2023-07-29T01:01:08;2.78;;;2.00;;
64903;SDS011;51401;48.882;12.598;2023-07-29T01:03:34;3.03;;;2.42;;
64903;SDS011;51401;48.882;12.598;2023-07-29T01:08:54;3.55;;;2.10;;
64903;SDS011;51401;48.882;12.598;2023-07-29T01:16:52;3.55;;;2.17;;
64903;SDS011;51401;48.882;12.598;2023-07-29T01:22:11;3.97;;;2.78;;
64903;SDS011;51401;48.882;12.598;2023-07-29T01:24:37;3.33;;;1.95;;
64903;SDS011;51401;48.882;12.598;2023-07-29T01:27:04;3.20;;;2.60;;
64903;SDS011;51401;48.882;12.598;2023-07-29T01:29:30;3.22;;;2.55;;
64903;SDS011;51401;48.882;12.598;2023-07-29T01:31:56;2.83;;;2.55;;
64903;SDS011;51401;48.882;12.598;2023-07-29T01:34:29;2.75;;;2.30;;
64903;SDS011;51401;48.882;12.598;2023-07-29T01:37:01;2.55;;;2.22;;
64903;SDS011;51401;48.882;12.598;2023-07-29T01:39:30;3.05;;;2.60;;
64903;SDS011;51401;48.882;12.598;2023-07-29T01:41:58;2.83;;;2.40;;
64903;SDS011;51401;48.882;12.598;2023-07-29T01:44:24;2.42;;;2.10;;
64903;SDS011;51401;48.882;12.598;2023-07-29T01:46:51;3.22;;;2.10;;
64903;SDS011;51401;48.882;12.598;2023-07-29T01:49:16;3.72;;;2.22;;
64903;SDS011;51401;48.882;12.598;2023-07-29T01:51:42;2.60;;;2.20;;
64903;SDS011;51401;48.882;12.598;2023-07-29T01:54:07;3.53;;;2.38;;
64903;SDS011;51401;48.882;12.598;2023-07-29T01:56:32;2.70;;;2.10;;
64903;SDS011;51401;48.882;12.598;2023-07-29T01:58:58;2.40;;;1.77;;
64903;SDS011;51401;48.882;12.598;2023-07-29T02:01:23;3.05;;;2.15;;
64903;SDS011;51401;48.882;12.598;2023-07-29T02:03:48;2.70;;;2.20;;
64903;SDS011;51401;48.882;12.598;2023-07-29T02:06:19;3.05;;;2.42;;
64903;SDS011;51401;48.882;12.598;2023-07-29T02:08:45;2.65;;;2.35;;
64903;SDS011;51401;48.882;12.598;2023-07-29T02:11:10;3.10;;;2.50;;
64903;SDS011;51401;48.882;12.598;2023-07-29T02:13:35;3.20;;;2.40;;
64903;SDS011;51401;48.882;12.598;2023-07-29T02:16:01;2.83;;;2.20;;
64903;SDS011;51401;48.882;12.598;2023-07-29T02:18:26;3.15;;;2.55;;
64903;SDS011;51401;48.882;12.598;2023-07-29T02:20:51;2.63;;;2.30;;
64903;SDS011;51401;48.882;12.598;2023-07-29T02:23:17;3.72;;;2.30;;
64903;SDS011;51401;48.882;12.598;2023-07-29T02:25:42;3.13;;;2.15;;
64903;SDS011;51401;48.882;12.598;2023-07-29T02:28:07;2.65;;;2.05;;
64903;SDS011;51401;48.882;12.598;2023-07-29T02:30:33;3.08;;;2.47;;
64903;SDS011;51401;48.882;12.598;2023-07-29T02:32:58;2.95;;;2.00;;
64903;SDS011;51401;48.882;12.598;2023-07-29T02:35:26;5.45;;;2.38;;
64903;SDS011;51401;48.882;12.598;2023-07-29T02:37:51;3.20;;;2.22;;
64903;SDS011;51401;48.882;12.598;2023-07-29T02:40:16;2.60;;;2.08;;
64903;SDS011;51401;48.882;12.598;2023-07-29T02:42:42;2.90;;;2.47;;
64903;SDS011;51401;48.882;12.598;2023-07-29T02:45:07;2.65;;;2.30;;
64903;SDS011;51401;48.882;12.598;2023-07-29T02:47:35;3.60;;;2.50;;
64903;SDS011;51401;48.882;12.598;2023-07-29T02:50:01;3.08;;;2.38;;
64903;SDS011;51401;48.882;12.598;2023-07-29T02:52:27;3.55;;;2.10;;
64903;SDS011;51401;48.882;12.598;2023-07-29T02:54:52;2.55;;;2.10;;
64903;SDS011;51401;48.882;12.598;2023-07-29T02:57:18;3.38;;;2.40;;
64903;SDS011;51401;48.882;12.598;2023-07-29T02:59:43;4.03;;;2.92;;
64903;SDS011;51401;48.882;12.598;2023-07-29T03:02:08;3.30;;;2.47;;
64903;SDS011;51401;48.882;12.598;2023-07-29T03:04:34;2.92;;;2.60;;
64903;SDS011;51401;48.882;12.598;2023-07-29T03:10:21;3.05;;;1.92;;
64903;SDS011;51401;48.882;12.598;2023-07-29T03:12:47;3.20;;;2.60;;
64903;SDS011;51401;48.882;12.598;2023-07-29T03:15:12;2.87;;;2.23;;
64903;SDS011;51401;48.882;12.598;2023-07-29T03:17:37;2.97;;;2.30;;
64903;SDS011;51401;48.882;12.598;2023-07-29T03:20:03;2.80;;;2.40;;
64903;SDS011;51401;48.882;12.598;2023-07-29T03:22:28;2.42;;;2.15;;
64903;SDS011;51401;48.882;12.598;2023-07-29T03:24:54;3.00;;;2.40;;
64903;SDS011;51401;48.882;12.598;2023-07-29T03:27:19;3.60;;;2.28;;
64903;SDS011;51401;48.882;12.598;2023-07-29T03:29:44;4.32;;;2.80;;
64903;SDS011;51401;48.882;12.598;2023-07-29T03:32:10;4.10;;;2.58;;
64903;SDS011;51401;48.882;12.598;2023-07-29T03:34:36;2.95;;;2.42;;
64903;SDS011;51401;48.882;12.598;2023-07-29T03:37:01;3.30;;;2.72;;
64903;SDS011;51401;48.882;12.598;2023-07-29T03:39:27;3.17;;;2.78;;
64903;SDS011;51401;48.882;12.598;2023-07-29T03:41:52;3.30;;;2.70;;
64903;SDS011;51401;48.882;12.598;2023-07-29T03:44:17;3.42;;;2.35;;
64903;SDS011;51401;48.882;12.598;2023-07-29T03:46:44;3.25;;;2.47;;
64903;SDS011;51401;48.882;12.598;2023-07-29T03:49:09;3.35;;;2.47;;
64903;SDS011;51401;48.882;12.598;2023-07-29T03:51:35;3.15;;;2.38;;
64903;SDS011;51401;48.882;12.598;2023-07-29T03:54:00;3.35;;;2.65;;
64903;SDS011;51401;48.882;12.598;2023-07-29T03:56:26;3.00;;;2.50;;
64903;SDS011;51401;48.882;12.598;2023-07-29T03:58:52;3.13;;;2.80;;
64903;SDS011;51401;48.882;12.598;2023-07-29T04:01:18;3.65;;;2.95;;
64903;SDS011;51401;48.882;12.598;2023-07-29T04:03:44;4.28;;;2.60;;
64903;SDS011;51401;48.882;12.598;2023-07-29T04:06:11;3.05;;;2.22;;
64903;SDS011;51401;48.882;12.598;2023-07-29T04:08:36;4.28;;;1.92;;
64903;SDS011;51401;48.882;12.598;2023-07-29T04:11:02;3.88;;;2.67;;
64903;SDS011;51401;48.882;12.598;2023-07-29T04:13:27;3.63;;;2.40;;
64903;SDS011;51401;48.882;12.598;2023-07-29T04:15:52;3.25;;;2.30;;
64903;SDS011;51401;48.882;12.598;2023-07-29T04:18:17;3.53;;;2.80;;
64903;SDS011;51401;48.882;12.598;2023-07-29T04:20:43;2.45;;;2.03;;
64903;SDS011;51401;48.882;12.598;2023-07-29T04:23:08;2.85;;;2.40;;
64903;SDS011;51401;48.882;12.598;2023-07-29T04:25:34;3.25;;;2.95;;
64903;SDS011;51401;48.882;12.598;2023-07-29T04:27:59;2.78;;;2.30;;
64903;SDS011;51401;48.882;12.598;2023-07-29T04:30:24;3.10;;;2.70;;
64903;SDS011;51401;48.882;12.598;2023-07-29T04:32:50;3.00;;;2.42;;
64903;SDS011;51401;48.882;12.598;2023-07-29T04:35:15;2.75;;;2.50;;
64903;SDS011;51401;48.882;12.598;2023-07-29T04:37:40;2.85;;;2.47;;
64903;SDS011;51401;48.882;12.598;2023-07-29T04:40:06;2.90;;;2.50;;
64903;SDS011;51401;48.882;12.598;2023-07-29T04:42:32;4.07;;;2.45;;
64903;SDS011;51401;48.882;12.598;2023-07-29T04:44:57;2.90;;;2.33;;
64903;SDS011;51401;48.882;12.598;2023-07-29T04:47:23;3.22;;;2.25;;
64903;SDS011;51401;48.882;12.598;2023-07-29T04:49:48;3.40;;;2.50;;
64903;SDS011;51401;48.882;12.598;2023-07-29T04:52:14;2.95;;;2.67;;
64903;SDS011;51401;48.882;12.598;2023-07-29T04:54:40;2.20;;;2.00;;
64903;SDS011;51401;48.882;12.598;2023-07-29T04:57:05;3.38;;;2.20;;
64903;SDS011;51401;48.882;12.598;2023-07-29T04:59:31;2.45;;;2.10;;
64903;SDS011;51401;48.882;12.598;2023-07-29T05:01:56;2.30;;;2.10;;
64903;SDS011;51401;48.882;12.598;2023-07-29T05:04:22;3.20;;;2.40;;
64903;SDS011;51401;48.882;12.598;2023-07-29T05:06:47;2.63;;;2.28;;
64903;SDS011;51401;48.882;12.598;2023-07-29T05:09:17;2.13;;;1.90;;
64903;SDS011;51401;48.882;12.598;2023-07-29T05:11:43;2.97;;;2.08;;
64903;SDS011;51401;48.882;12.598;2023-07-29T05:14:16;2.10;;;1.80;;
64903;SDS011;51401;48.882;12.598;2023-07-29T05:16:43;3.03;;;2.30;;
64903;SDS011;51401;48.882;12.598;2023-07-29T05:19:09;2.70;;;2.10;;
64903;SDS011;51401;48.882;12.598;2023-07-29T05:21:35;2.22;;;1.85;;
64903;SDS011;51401;48.882;12.598;2023-07-29T05:24:00;2.53;;;2.13;;
64903;SDS011;51401;48.882;12.598;2023-07-29T05:26:26;2.25;;;2.05;;
64903;SDS011;51401;48.882;12.598;2023-07-29T05:28:51;4.15;;;2.60;;
64903;SDS011;51401;48.882;12.598;2023-07-29T05:31:16;3.08;;;2.53;;
64903;SDS011;51401;48.882;12.598;2023-07-29T05:33:42;3.83;;;2.38;;
64903;SDS011;51401;48.882;12.598;2023-07-29T05:36:08;4.93;;;2.70;;
64903;SDS011;51401;48.882;12.598;2023-07-29T05:38:33;3.70;;;2.47;;
64903;SDS011;51401;48.882;12.598;2023-07-29T05:40:58;3.08;;;2.20;;
64903;SDS011;51401;48.882;12.598;2023-07-29T05:43:24;3.13;;;2.50;;
64903;SDS011;51401;48.882;12.598;2023-07-29T05:45:49;2.28;;;1.95;;
64903;SDS011;51401;48.882;12.598;2023-07-29T05:48:16;3.25;;;2.10;;
64903;SDS011;51401;48.882;12.598;2023-07-29T05:50:41;4.75;;;2.40;;
64903;SDS011;51401;48.882;12.598;2023-07-29T05:53:06;2.40;;;2.17;;
64903;SDS011;51401;48.882;12.598;2023-07-29T05:55:32;2.58;;;2.22;;
64903;SDS011;51401;48.882;12.598;2023-07-29T05:57:57;3.22;;;2.53;;
64903;SDS011;51401;48.882;12.598;2023-07-29T06:00:22;4.03;;;2.33;;
64903;SDS011;51401;48.882;12.598;2023-07-29T06:02:48;4.13;;;2.85;;
64903;SDS011;51401;48.882;12.598;2023-07-29T06:05:13;4.37;;;2.80;;
64903;SDS011;51401;48.882;12.598;2023-07-29T06:07:39;3.22;;;2.60;;
64903;SDS011;51401;48.882;12.598;2023-07-29T06:10:09;4.32;;;2.88;;
64903;SDS011;51401;48.882;12.598;2023-07-29T06:12:36;2.83;;;2.38;;
64903;SDS011;51401;48.882;12.598;2023-07-29T06:15:02;2.90;;;2.30;;
64903;SDS011;51401;48.882;12.598;2023-07-29T06:17:28;3.53;;;2.92;;
64903;SDS011;51401;48.882;12.598;2023-07-29T06:19:53;4.90;;;2.80;;
64903;SDS011;51401;48.882;12.598;2023-07-29T06:22:18;5.78;;;3.05;;
64903;SDS011;51401;48.882;12.598;2023-07-29T06:24:44;3.50;;;3.00;;
64903;SDS011;51401;48.882;12.598;2023-07-29T06:27:09;5.63;;;3.05;;
64903;SDS011;51401;48.882;12.598;2023-07-29T06:29:34;4.07;;;3.23;;
64903;SDS011;51401;48.882;12.598;2023-07-29T06:31:59;3.80;;;2.73;;
64903;SDS011;51401;48.882;12.598;2023-07-29T06:34:25;3.13;;;2.72;;
64903;SDS011;51401;48.882;12.598;2023-07-29T06:36:50;4.05;;;2.80;;
64903;SDS011;51401;48.882;12.598;2023-07-29T06:39:16;4.65;;;2.95;;
64903;SDS011;51401;48.882;12.598;2023-07-29T06:41:41;4.23;;;3.10;;
64903;SDS011;51401;48.882;12.598;2023-07-29T06:44:06;5.70;;;3.25;;
64903;SDS011;51401;48.882;12.598;2023-07-29T06:46:32;5.73;;;3.07;;
64903;SDS011;51401;48.882;12.598;2023-07-29T06:48:57;3.60;;;2.67;;
64903;SDS011;51401;48.882;12.598;2023-07-29T06:51:22;3.40;;;2.88;;
64903;SDS011;51401;48.882;12.598;2023-07-29T06:53:48;4.90;;;3.25;;
64903;SDS011;51401;48.882;12.598;2023-07-29T06:56:16;3.47;;;3.17;;
64903;SDS011;51401;48.882;12.598;2023-07-29T06:58:42;6.55;;;3.38;;
64903;SDS011;51401;48.882;12.598;2023-07-29T07:01:07;6.28;;;3.30;;
64903;SDS011;51401;48.882;12.598;2023-07-29T07:03:32;4.32;;;2.80;;
64903;SDS011;51401;48.882;12.598;2023-07-29T07:05:58;4.10;;;3.17;;
64903;SDS011;51401;48.882;12.598;2023-07-29T07:08:23;4.72;;;3.35;;
64903;SDS011;51401;48.882;12.598;2023-07-29T07:10:49;3.80;;;2.80;;
64903;SDS011;51401;48.882;12.598;2023-07-29T07:13:14;3.92;;;3.17;;
64903;SDS011;51401;48.882;12.598;2023-07-29T07:15:40;3.33;;;2.38;;
64903;SDS011;51401;48.882;12.598;2023-07-29T07:18:05;2.83;;;2.47;;
64903;SDS011;51401;48.882;12.598;2023-07-29T07:20:30;4.38;;;2.75;;
64903;SDS011;51401;48.882;12.598;2023-07-29T07:22:56;3.08;;;2.65;;
64903;SDS011;51401;48.882;12.598;2023-07-29T07:25:21;3.05;;;2.58;;
64903;SDS011;51401;48.882;12.598;2023-07-29T07:27:46;3.75;;;2.97;;
64903;SDS011;51401;48.882;12.598;2023-07-29T07:30:12;4.07;;;2.92;;
64903;SDS011;51401;48.882;12.598;2023-07-29T07:32:37;4.30;;;2.55;;
64903;SDS011;51401;48.882;12.598;2023-07-29T07:35:03;3.45;;;2.78;;
64903;SDS011;51401;48.882;12.598;2023-07-29T07:37:29;3.15;;;2.55;;
64903;SDS011;51401;48.882;12.598;2023-07-29T07:39:54;3.83;;;2.67;;
64903;SDS011;51401;48.882;12.598;2023-07-29T07:42:19;3.08;;;2.50;;
64903;SDS011;51401;48.882;12.598;2023-07-29T07:44:45;2.80;;;2.40;;
64903;SDS011;51401;48.882;12.598;2023-07-29T07:47:10;3.15;;;2.55;;
64903;SDS011;51401;48.882;12.598;2023-07-29T07:49:35;3.17;;;2.85;;
64903;SDS011;51401;48.882;12.598;2023-07-29T07:52:01;4.57;;;2.90;;
64903;SDS011;51401;48.882;12.598;2023-07-29T07:54:26;5.25;;;3.00;;
64903;SDS011;51401;48.882;12.598;2023-07-29T07:56:51;4.20;;;3.00;;
64903;SDS011;51401;48.882;12.598;2023-07-29T07:59:17;4.22;;;3.47;;
64903;SDS011;51401;48.882;12.598;2023-07-29T08:01:42;3.70;;;2.87;;
64903;SDS011;51401;48.882;12.598;2023-07-29T08:04:07;4.13;;;3.27;;
64903;SDS011;51401;48.882;12.598;2023-07-29T08:06:33;4.57;;;3.20;;
64903;SDS011;51401;48.882;12.598;2023-07-29T08:08:58;4.32;;;3.10;;
64903;SDS011;51401;48.882;12.598;2023-07-29T08:11:24;3.90;;;3.10;;
64903;SDS011;51401;48.882;12.598;2023-07-29T08:13:49;4.00;;;3.08;;
64903;SDS011;51401;48.882;12.598;2023-07-29T08:16:15;4.87;;;3.07;;
64903;SDS011;51401;48.882;12.598;2023-07-29T08:18:40;5.05;;;3.35;;
64903;SDS011;51401;48.882;12.598;2023-07-29T08:21:06;4.50;;;3.17;;
64903;SDS011;51401;48.882;12.598;2023-07-29T08:23:32;3.10;;;2.50;;
64903;SDS011;51401;48.882;12.598;2023-07-29T08:25:59;3.05;;;2.65;;
64903;SDS011;51401;48.882;12.598;2023-07-29T08:28:36;3.45;;;2.70;;
64903;SDS011;51401;48.882;12.598;2023-07-29T08:31:03;4.43;;;3.17;;
64903;SDS011;51401;48.882;12.598;2023-07-29T08:33:29;4.47;;;3.03;;
64903;SDS011;51401;48.882;12.598;2023-07-29T08:35:57;4.00;;;2.80;;
64903;SDS011;51401;48.882;12.598;2023-07-29T08:38:22;3.67;;;3.10;;
64903;SDS011;51401;48.882;12.598;2023-07-29T08:40:57;5.57;;;2.90;;
64903;SDS011;51401;48.882;12.598;2023-07-29T08:43:29;3.45;;;2.33;;
64903;SDS011;51401;48.882;12.598;2023-07-29T08:45:56;2.92;;;2.25;;
64903;SDS011;51401;48.882;12.598;2023-07-29T08:48:24;3.05;;;2.45;;
64903;SDS011;51401;48.882;12.598;2023-07-29T08:51:04;3.30;;;2.17;;
64903;SDS011;51401;48.882;12.598;2023-07-29T08:53:31;3.17;;;2.53;;
64903;SDS011;51401;48.882;12.598;2023-07-29T08:55:57;4.13;;;2.20;;
64903;SDS011;51401;48.882;12.598;2023-07-29T08:58:23;3.35;;;2.50;;
64903;SDS011;51401;48.882;12.598;2023-07-29T09:00:49;2.60;;;2.08;;
64903;SDS011;51401;48.882;12.598;2023-07-29T09:03:15;3.05;;;2.22;;
64903;SDS011;51401;48.882;12.598;2023-07-29T09:05:40;4.00;;;2.40;;
64903;SDS011;51401;48.882;12.598;2023-07-29T09:08:06;3.65;;;2.50;;
64903;SDS011;51401;48.882;12.598;2023-07-29T09:10:34;3.58;;;2.40;;
64903;SDS011;51401;48.882;12.598;2023-07-29T09:13:01;4.15;;;2.47;;
64903;SDS011;51401;48.882;12.598;2023-07-29T09:15:28;2.28;;;1.60;;
64903;SDS011;51401;48.882;12.598;2023-07-29T09:17:55;2.35;;;1.92;;
64903;SDS011;51401;48.882;12.598;2023-07-29T09:20:28;2.67;;;1.90;;
64903;SDS011;51401;48.882;12.598;2023-07-29T09:22:58;2.55;;;1.80;;
64903;SDS011;51401;48.882;12.598;2023-07-29T09:25:27;2.65;;;1.80;;
64903;SDS011;51401;48.882;12.598;2023-07-29T09:28:00;2.95;;;1.80;;
64903;SDS011;51401;48.882;12.598;2023-07-29T09:30:26;2.97;;;1.60;;
64903;SDS011;51401;48.882;12.598;2023-07-29T09:32:56;2.92;;;1.30;;
64903;SDS011;51401;48.882;12.598;2023-07-29T09:35:22;2.30;;;1.50;;
64903;SDS011;51401;48.882;12.598;2023-07-29T09:37:47;2.45;;;1.50;;
64903;SDS011;51401;48.882;12.598;2023-07-29T09:40:13;4.85;;;1.50;;
64903;SDS011;51401;48.882;12.598;2023-07-29T09:42:40;2.00;;;1.50;;
64903;SDS011;51401;48.882;12.598;2023-07-29T09:45:14;2.72;;;1.80;;
64903;SDS011;51401;48.882;12.598;2023-07-29T09:47:45;1.95;;;1.45;;
64903;SDS011;51401;48.882;12.598;2023-07-29T09:50:11;2.83;;;1.70;;
64903;SDS011;51401;48.882;12.598;2023-07-29T09:52:38;3.22;;;1.58;;
64903;SDS011;51401;48.882;12.598;2023-07-29T09:55:03;1.58;;;1.30;;
64903;SDS011;51401;48.882;12.598;2023-07-29T09:57:29;1.77;;;1.55;;
64903;SDS011;51401;48.882;12.598;2023-07-29T09:59:55;2.30;;;1.55;;
64903;SDS011;51401;48.882;12.598;2023-07-29T10:02:21;1.58;;;1.30;;
64903;SDS011;51401;48.882;12.598;2023-07-29T10:04:48;3.72;;;1.45;;
64903;SDS011;51401;48.882;12.598;2023-07-29T10:07:14;3.13;;;2.40;;
64903;SDS011;51401;48.882;12.598;2023-07-29T10:09:40;3.13;;;1.88;;
64903;SDS011;51401;48.882;12.598;2023-07-29T10:12:07;2.20;;;1.73;;
64903;SDS011;51401;48.882;12.598;2023-07-29T10:14:33;2.95;;;1.83;;
64903;SDS011;51401;48.882;12.598;2023-07-29T10:16:58;2.58;;;1.67;;
64903;SDS011;51401;48.882;12.598;2023-07-29T10:19:25;1.98;;;1.40;;
64903;SDS011;51401;48.882;12.598;2023-07-29T10:21:51;2.42;;;1.67;;
64903;SDS011;51401;48.882;12.598;2023-07-29T10:24:21;2.83;;;2.05;;
64903;SDS011;51401;48.882;12.598;2023-07-29T10:26:53;2.55;;;2.03;;
64903;SDS011;51401;48.882;12.598;2023-07-29T10:29:22;2.28;;;1.88;;
64903;SDS011;51401;48.882;12.598;2023-07-29T10:31:48;3.30;;;2.03;;
64903;SDS011;51401;48.882;12.598;2023-07-29T10:34:18;2.47;;;1.92;;
64903;SDS011;51401;48.882;12.598;2023-07-29T10:36:45;3.30;;;2.00;;
64903;SDS011;51401;48.882;12.598;2023-07-29T10:39:11;2.00;;;1.80;;
64903;SDS011;51401;48.882;12.598;2023-07-29T10:42:20;3.60;;;2.28;;
64903;SDS011;51401;48.882;12.598;2023-07-29T10:47:20;2.75;;;2.15;;
64903;SDS011;51401;48.882;12.598;2023-07-29T10:49:53;2.60;;;2.10;;
64903;SDS011;51401;48.882;12.598;2023-07-29T10:55:27;3.60;;;2.65;;
64903;SDS011;51401;48.882;12.598;2023-07-29T10:58:08;3.15;;;2.15;;
64903;SDS011;51401;48.882;12.598;2023-07-29T11:00:36;2.63;;;2.05;;
64903;SDS011;51401;48.882;12.598;2023-07-29T11:03:02;2.72;;;2.03;;
64903;SDS011;51401;48.882;12.598;2023-07-29T11:05:50;2.15;;;1.90;;
64903;SDS011;51401;48.882;12.598;2023-07-29T11:08:17;2.28;;;2.08;;
64903;SDS011;51401;48.882;12.598;2023-07-29T11:10:44;2.92;;;2.33;;
64903;SDS011;51401;48.882;12.598;2023-07-29T11:13:23;3.08;;;2.33;;
64903;SDS011;51401;48.882;12.598;2023-07-29T11:15:48;2.83;;;2.00;;
64903;SDS011;51401;48.882;12.598;2023-07-29T11:18:15;2.38;;;1.95;;
64903;SDS011;51401;48.882;12.598;2023-07-29T11:20:41;3.08;;;2.20;;
64903;SDS011;51401;48.882;12.598;2023-07-29T11:23:06;2.38;;;2.17;;
64903;SDS011;51401;48.882;12.598;2023-07-29T11:25:31;2.80;;;2.13;;
64903;SDS011;51401;48.882;12.598;2023-07-29T11:27:59;3.05;;;1.88;;
64903;SDS011;51401;48.882;12.598;2023-07-29T11:30:25;3.15;;;2.10;;
64903;SDS011;51401;48.882;12.598;2023-07-29T11:32:54;3.05;;;2.17;;
64903;SDS011;51401;48.882;12.598;2023-07-29T11:35:20;2.72;;;2.10;;
64903;SDS011;51401;48.882;12.598;2023-07-29T11:37:49;2.65;;;2.25;;
64903;SDS011;51401;48.882;12.598;2023-07-29T11:40:20;3.15;;;2.50;;
64903;SDS011;51401;48.882;12.598;2023-07-29T11:42:48;4.05;;;2.42;;
64903;SDS011;51401;48.882;12.598;2023-07-29T11:45:16;3.97;;;2.40;;
64903;SDS011;51401;48.882;12.598;2023-07-29T11:47:42;3.00;;;2.20;;
64903;SDS011;51401;48.882;12.598;2023-07-29T11:50:08;2.80;;;2.40;;
64903;SDS011;51401;48.882;12.598;2023-07-29T11:52:35;3.15;;;2.42;;
64903;SDS011;51401;48.882;12.598;2023-07-29T11:55:02;3.55;;;2.78;;
64903;SDS011;51401;48.882;12.598;2023-07-29T11:57:35;2.47;;;2.20;;
64903;SDS011;51401;48.882;12.598;2023-07-29T12:00:05;3.63;;;2.03;;
64903;SDS011;51401;48.882;12.598;2023-07-29T12:02:32;5.50;;;2.05;;
64903;SDS011;51401;48.882;12.598;2023-07-29T12:05:01;2.58;;;2.35;;
64903;SDS011;51401;48.882;12.598;2023-07-29T12:07:29;2.45;;;1.80;;
64903;SDS011;51401;48.882;12.598;2023-07-29T12:09:54;2.38;;;1.80;;
64903;SDS011;51401;48.882;12.598;2023-07-29T12:12:21;2.25;;;2.05;;
64903;SDS011;51401;48.882;12.598;2023-07-29T12:14:47;3.33;;;1.92;;
64903;SDS011;51401;48.882;12.598;2023-07-29T12:17:14;3.10;;;1.98;;
64903;SDS011;51401;48.882;12.598;2023-07-29T12:19:39;3.33;;;2.05;;
64903;SDS011;51401;48.882;12.598;2023-07-29T12:22:07;2.38;;;2.00;;
64903;SDS011;51401;48.882;12.598;2023-07-29T12:24:33;2.38;;;1.95;;
64903;SDS011;51401;48.882;12.598;2023-07-29T12:27:01;2.90;;;1.88;;
64903;SDS011;51401;48.882;12.598;2023-07-29T12:29:26;3.13;;;2.10;;
64903;SDS011;51401;48.882;12.598;2023-07-29T12:32:01;2.40;;;1.80;;
64903;SDS011;51401;48.882;12.598;2023-07-29T12:34:29;2.90;;;1.90;;
64903;SDS011;51401;48.882;12.598;2023-07-29T12:36:56;3.05;;;1.88;;
64903;SDS011;51401;48.882;12.598;2023-07-29T12:39:26;2.80;;;2.10;;
64903;SDS011;51401;48.882;12.598;2023-07-29T12:41:55;2.35;;;1.67;;
64903;SDS011;51401;48.882;12.598;2023-07-29T12:44:25;3.15;;;1.80;;
64903;SDS011;51401;48.882;12.598;2023-07-29T12:46:52;3.40;;;2.08;;
64903;SDS011;51401;48.882;12.598;2023-07-29T12:49:17;2.67;;;2.05;;
64903;SDS011;51401;48.882;12.598;2023-07-29T12:51:43;2.97;;;2.03;;
64903;SDS011;51401;48.882;12.598;2023-07-29T12:54:08;2.37;;;1.83;;
64903;SDS011;51401;48.882;12.598;2023-07-29T12:56:34;3.05;;;1.67;;
64903;SDS011;51401;48.882;12.598;2023-07-29T12:58:59;2.60;;;2.25;;
64903;SDS011;51401;48.882;12.598;2023-07-29T13:01:26;3.30;;;1.73;;
64903;SDS011;51401;48.882;12.598;2023-07-29T13:03:52;2.05;;;1.80;;
64903;SDS011;51401;48.882;12.598;2023-07-29T13:06:18;2.75;;;1.67;;
64903;SDS011;51401;48.882;12.598;2023-07-29T13:08:44;2.00;;;1.80;;
64903;SDS011;51401;48.882;12.598;2023-07-29T13:11:10;2.20;;;1.85;;
64903;SDS011;51401;48.882;12.598;2023-07-29T13:13:36;1.65;;;1.38;;
64903;SDS011;51401;48.882;12.598;2023-07-29T13:16:02;2.70;;;1.60;;
64903;SDS011;51401;48.882;12.598;2023-07-29T13:18:27;1.70;;;1.48;;
64903;SDS011;51401;48.882;12.598;2023-07-29T13:20:53;2.67;;;1.70;;
64903;SDS011;51401;48.882;12.598;2023-07-29T13:23:19;1.65;;;1.33;;
64903;SDS011;51401;48.882;12.598;2023-07-29T13:25:44;1.63;;;1.42;;
64903;SDS011;51401;48.882;12.598;2023-07-29T13:28:10;4.03;;;1.85;;
64903;SDS011;51401;48.882;12.598;2023-07-29T13:30:35;1.98;;;1.67;;
64903;SDS011;51401;48.882;12.598;2023-07-29T13:33:01;2.13;;;1.60;;
64903;SDS011;51401;48.882;12.598;2023-07-29T13:35:26;1.60;;;1.40;;
64903;SDS011;51401;48.882;12.598;2023-07-29T13:37:52;2.70;;;1.63;;
64903;SDS011;51401;48.882;12.598;2023-07-29T13:40:17;1.63;;;1.40;;
64903;SDS011;51401;48.882;12.598;2023-07-29T13:42:43;2.47;;;1.67;;
64903;SDS011;51401;48.882;12.598;2023-07-29T13:45:08;2.10;;;1.65;;
64903;SDS011;51401;48.882;12.598;2023-07-29T13:47:34;2.78;;;1.98;;
64903;SDS011;51401;48.882;12.598;2023-07-29T13:49:59;2.13;;;1.40;;
64903;SDS011;51401;48.882;12.598;2023-07-29T13:52:25;2.72;;;1.65;;
64903;SDS011;51401;48.882;12.598;2023-07-29T13:54:50;3.88;;;1.80;;
64903;SDS011;51401;48.882;12.598;2023-07-29T13:57:15;1.80;;;1.40;;
64903;SDS011;51401;48.882;12.598;2023-07-29T13:59:41;2.27;;;1.80;;
64903;SDS011;51401;48.882;12.598;2023-07-29T14:02:06;3.33;;;1.95;;
64903;SDS011;51401;48.882;12.598;2023-07-29T14:04:32;2.55;;;1.65;;
64903;SDS011;51401;48.882;12.598;2023-07-29T14:06:58;2.42;;;2.00;;
64903;SDS011;51401;48.882;12.598;2023-07-29T14:09:23;2.00;;;1.60;;
64903;SDS011;51401;48.882;12.598;2023-07-29T14:11:49;2.17;;;1.80;;
64903;SDS011;51401;48.882;12.598;2023-07-29T14:14:15;3.17;;;2.07;;
64903;SDS011;51401;48.882;12.598;2023-07-29T14:16:40;2.40;;;1.95;;
64903;SDS011;51401;48.882;12.598;2023-07-29T14:19:05;1.92;;;1.63;;
64903;SDS011;51401;48.882;12.598;2023-07-29T14:21:31;2.42;;;1.60;;
64903;SDS011;51401;48.882;12.598;2023-07-29T14:23:56;2.20;;;1.60;;
64903;SDS011;51401;48.882;12.598;2023-07-29T14:26:21;1.75;;;1.42;;
64903;SDS011;51401;48.882;12.598;2023-07-29T14:28:47;1.60;;;1.50;;
64903;SDS011;51401;48.882;12.598;2023-07-29T14:31:12;1.80;;;1.70;;
64903;SDS011;51401;48.882;12.598;2023-07-29T14:33:38;2.33;;;1.52;;
64903;SDS011;51401;48.882;12.598;2023-07-29T14:36:03;1.60;;;1.10;;
64903;SDS011;51401;48.882;12.598;2023-07-29T14:38:29;2.85;;;2.55;;
64903;SDS011;51401;48.882;12.598;2023-07-29T14:40:55;13.15;;;10.13;;
64903;SDS011;51401;48.882;12.598;2023-07-29T14:43:21;6.97;;;6.28;;
64903;SDS011;51401;48.882;12.598;2023-07-29T14:45:48;6.00;;;4.82;;
64903;SDS011;51401;48.882;12.598;2023-07-29T14:48:13;8.07;;;7.28;;